Kingfield, Maine
Current Conditions -  °F | °C
As of 7:35 PM on Friday 24 Oct 2014 (Local Time) from KWVL Reporting Station
Overcast Overcast  
Wind Chill: 41°   Ceiling: 1600
Heat Index: 46°   Visibility: 10mi
Dew Point: 39°   Wind: 13mph
Humidity: 76%   Direction: 330°NNW
Pressure: 29.66"   Gusts: NA
Location:  44.96°N, 70.15°W
Report Text: KWVL 242335Z 33011KT 10SM OVC016 08/04 A2966 RMK AO1
Loading
Personal Weather Stations






























Interactive Weather Map New forecast layout! Learn more

10-Day Weather Forecast

Advertisements
Track Severe Weather on mobile